This is the latest recevied weather packets stored in our database for station/object F5ZMN-13. If no packets are shown the sender has not sent any weather packets the latest 10 day(s).
| Time | Temp. | Humidity | Pressure | Rain* | Wind** | Luminosity | Snow |
|---|---|---|---|---|---|---|---|
| 1787757492 | 26.67° C | 55% | 1007.5 hPa | - | - | - | - |
| 1787756878 | 26.11° C | 54% | 1007.5 hPa | - | - | - | - |
| 1787756262 | 26.11° C | 52% | 1007.5 hPa | - | - | - | - |
| 1787755647 | 26.11° C | 53% | 1007.6 hPa | - | - | - | - |
| 1787755032 | 26.67° C | 52% | 1007.6 hPa | - | - | - | - |
| 1787754417 | 26.67° C | 52% | 1007.7 hPa | - | - | - | - |
| 1787737582 | 24.44° C | 63% | 1014.1 hPa | - | - | - | - |
| 1787736967 | 24.44° C | 63% | 1014.2 hPa | - | - | - | - |
| 1787736352 | 24.44° C | 63% | 1014.5 hPa | - | - | - | - |
| 1787735737 | 24.44° C | 62% | 1014.5 hPa | - | - | - | - |
| 1787735122 | 24.44° C | 63% | 1014.7 hPa | - | - | - | - |
| 1787734507 | 24.44° C | 62% | 1014.8 hPa | - | - | - | - |
| 1787733277 | 24.44° C | 62% | 1015.2 hPa | - | - | - | - |
| 1787732662 | 24.44° C | 61% | 1015.3 hPa | - | - | - | - |
| 1787732047 | 24.44° C | 62% | 1015.4 hPa | - | - | - | - |
| 1787731432 | 24.44° C | 63% | 1015.2 hPa | - | - | - | - |
| 1787730817 | 24.44° C | 62% | 1015.3 hPa | - | - | - | - |
| 1787730202 | 23.89° C | 62% | 1015.6 hPa | - | - | - | - |
| 1787729587 | 23.89° C | 63% | 1015.7 hPa | - | - | - | - |
| 1787728972 | 24.44° C | 64% | 1015.8 hPa | - | - | - | - |
| 1787728357 | 23.89° C | 64% | 1015.9 hPa | - | - | - | - |
| 1787727742 | 23.33° C | 67% | 1016 hPa | - | - | - | - |
| 1787726775 | 25° C | 54% | 1013.6 hPa | - | - | - | - |
| 1787726160 | 25° C | 54% | 1013.6 hPa | - | - | - | - |
| 1787725545 | 25° C | 54% | 1013.6 hPa | - | - | - | - |
* Rain since midnight (hover to see other rain measurements)
** Current wind speed in m/s (hover to see current wind gust speed)